createdAt,value
2022-09-14T00:00:06.720Z,97999.38
2022-09-14T00:05:14.730Z,97996.19
2022-09-14T00:10:20.132Z,97996.19
2022-09-14T00:15:27.852Z,97982.63
2022-09-14T00:20:33.581Z,97978.53
2022-09-14T00:25:38.473Z,97974.16
2022-09-14T00:30:47.360Z,97972.38
2022-09-14T00:35:52.154Z,97965.41
2022-09-14T00:41:00.998Z,97966.22
2022-09-14T00:46:08.724Z,97960.22
2022-09-14T00:51:14.232Z,97957.47
2022-09-14T00:56:19.212Z,97963.84
2022-09-14T01:01:28.467Z,97961.63
2022-09-14T01:06:39.837Z,97950.72
2022-09-14T01:12:03.405Z,97954.00
2022-09-14T01:17:18.145Z,97947.63
2022-09-14T01:22:29.133Z,97962.19
2022-09-14T01:27:41.858Z,97959.81
2022-09-14T01:32:55.020Z,97948.66
2022-09-14T01:38:04.464Z,97938.44
2022-09-14T01:43:17.868Z,97933.44
2022-09-14T01:48:27.979Z,97929.19
2022-09-14T01:53:38.068Z,97932.56
2022-09-14T01:58:49.772Z,97935.03
2022-09-14T02:03:59.537Z,97925.94
2022-09-14T02:09:07.309Z,97912.19
2022-09-14T02:14:15.061Z,97902.19
2022-09-14T02:19:23.665Z,97903.28
2022-09-14T02:24:31.116Z,97902.28
2022-09-14T02:29:41.831Z,97903.03
2022-09-14T02:34:56.771Z,97897.16
2022-09-14T02:40:13.662Z,97893.34
2022-09-14T02:45:31.712Z,97875.19
2022-09-14T02:50:42.973Z,97890.03
2022-09-14T02:55:51.733Z,97890.47
2022-09-14T03:00:59.303Z,97885.59
2022-09-14T03:06:04.809Z,97897.09
2022-09-14T03:11:09.918Z,97895.69
2022-09-14T03:16:18.912Z,97891.78
2022-09-14T03:21:24.125Z,97901.47
2022-09-14T03:26:30.210Z,97884.50
2022-09-14T03:31:38.581Z,97886.50
2022-09-14T03:36:43.636Z,97896.47
2022-09-14T03:41:48.378Z,97906.09
2022-09-14T03:46:55.845Z,97891.44
2022-09-14T03:52:01.024Z,97889.31
2022-09-14T03:57:07.526Z,97885.00
2022-09-14T04:02:15.044Z,97876.53
2022-09-14T04:07:20.327Z,97875.47
2022-09-14T04:12:25.225Z,97858.31
2022-09-14T04:17:32.613Z,97861.66
2022-09-14T04:22:37.680Z,97857.91
2022-09-14T04:27:42.528Z,97856.84
2022-09-14T04:32:49.891Z,97859.00
2022-09-14T04:37:54.902Z,97849.44
2022-09-14T04:42:59.869Z,97846.38
2022-09-14T04:48:07.604Z,97851.34
2022-09-14T04:53:12.818Z,97835.66
2022-09-14T04:58:17.518Z,97836.16
2022-09-14T05:03:25.292Z,97842.34
2022-09-14T05:08:30.160Z,97837.28
2022-09-14T05:13:35.467Z,97845.03
2022-09-14T05:18:44.293Z,97840.25
2022-09-14T05:23:57.011Z,97829.22
2022-09-14T05:29:04.938Z,97833.19
2022-09-14T05:34:12.903Z,97829.41
2022-09-14T05:39:23.025Z,97825.56
2022-09-14T05:44:28.375Z,97830.31
2022-09-14T05:49:35.961Z,97829.84
2022-09-14T05:54:41.815Z,97823.03
2022-09-14T05:59:47.291Z,97810.97
2022-09-14T06:04:54.847Z,97812.16
2022-09-14T06:09:59.841Z,97805.59
2022-09-14T06:15:04.646Z,97795.94
2022-09-14T06:20:14.035Z,97794.56
2022-09-14T06:25:19.264Z,97802.53
2022-09-14T06:30:24.295Z,97790.34
2022-09-14T06:35:31.649Z,97793.97
2022-09-14T06:40:36.579Z,97799.94
2022-09-14T06:45:41.357Z,97800.81
2022-09-14T06:50:48.791Z,97799.59
2022-09-14T06:55:55.598Z,97801.03
2022-09-14T07:01:15.106Z,97787.91
2022-09-14T07:06:27.552Z,97799.06
2022-09-14T07:11:32.775Z,97803.81
2022-09-14T07:16:42.505Z,97790.56
2022-09-14T07:21:53.644Z,97793.59
2022-09-14T07:26:59.190Z,97797.94
2022-09-14T07:32:05.680Z,97777.66
2022-09-14T07:37:16.405Z,97802.84
2022-09-14T07:42:21.976Z,97791.69
2022-09-14T07:47:28.620Z,97796.88
2022-09-14T07:52:38.710Z,97791.22
2022-09-14T07:57:55.540Z,97799.22
2022-09-14T08:03:01.330Z,97794.69
2022-09-14T08:08:09.713Z,97793.72
2022-09-14T08:13:16.071Z,97796.50
2022-09-14T08:18:21.717Z,97781.22
2022-09-14T08:23:32.416Z,97765.34
2022-09-14T08:28:39.412Z,97776.72
2022-09-14T08:33:47.153Z,97778.94
2022-09-14T08:38:54.932Z,97769.75
2022-09-14T08:44:05.535Z,97777.56
2022-09-14T08:49:20.310Z,97775.94
2022-09-14T08:54:28.729Z,97761.38
2022-09-14T08:59:46.699Z,97790.59
2022-09-14T09:04:59.360Z,97784.91
2022-09-14T09:10:11.560Z,97782.88
2022-09-14T09:15:24.542Z,97789.63
2022-09-14T09:20:33.684Z,97793.78
2022-09-14T09:26:00.203Z,97781.03
2022-09-14T09:31:14.503Z,97770.72
2022-09-14T09:36:49.308Z,97767.06
2022-09-14T09:42:01.837Z,97766.69
2022-09-14T09:47:07.620Z,97769.88
2022-09-14T09:52:15.387Z,97773.44
2022-09-14T09:57:31.078Z,97750.13
2022-09-14T10:02:39.005Z,97772.03
2022-09-14T10:07:55.733Z,97747.88
2022-09-14T10:13:04.845Z,97732.47
2022-09-14T10:18:18.276Z,97750.25
2022-09-14T10:23:27.740Z,97727.47
2022-09-14T10:28:37.020Z,97724.53
2022-09-14T10:33:42.444Z,97727.72
2022-09-14T10:38:53.100Z,97741.16
2022-09-14T10:44:33.372Z,97734.16
2022-09-14T10:49:52.322Z,97736.44
2022-09-14T10:55:23.859Z,97724.25
2022-09-14T11:00:33.656Z,97750.19
2022-09-14T11:05:48.426Z,97760.97
2022-09-14T11:11:25.672Z,97755.06
2022-09-14T11:16:49.190Z,97751.81
2022-09-14T11:22:04.312Z,97744.38
2022-09-14T11:27:17.467Z,97738.66
2022-09-14T11:32:28.354Z,97717.09
2022-09-14T11:37:42.379Z,97723.84
2022-09-14T11:42:52.138Z,97722.09
2022-09-14T11:48:03.132Z,97715.78
2022-09-14T11:53:16.881Z,97701.19
2022-09-14T11:58:24.719Z,97712.06
2022-09-14T12:04:05.392Z,97698.81
2022-09-14T12:09:46.613Z,97712.91
2022-09-14T12:14:56.012Z,97707.91
2022-09-14T12:20:22.827Z,97701.72
2022-09-14T12:25:41.059Z,97694.47
2022-09-14T12:31:16.332Z,97691.06
2022-09-14T12:36:52.424Z,97694.47
2022-09-14T12:42:27.837Z,97677.56
2022-09-14T12:48:00.096Z,97691.84
2022-09-14T12:53:29.830Z,97687.25
2022-09-14T12:59:30.344Z,97674.13
2022-09-14T13:04:39.400Z,97668.66
2022-09-14T13:09:50.486Z,97655.13
2022-09-14T13:15:04.003Z,97646.38
2022-09-14T13:20:23.821Z,97646.19
2022-09-14T13:25:32.675Z,97642.03
2022-09-14T13:30:42.071Z,97644.00
2022-09-14T13:35:50.972Z,97654.06
2022-09-14T13:40:58.633Z,97634.81
2022-09-14T13:46:11.172Z,97643.56
2022-09-14T13:51:20.331Z,97653.72
2022-09-14T13:56:31.298Z,97639.81
2022-09-14T14:01:42.498Z,97625.00
2022-09-14T14:06:47.651Z,97625.88
2022-09-14T14:11:57.234Z,97628.47
2022-09-14T14:17:37.884Z,97616.44
2022-09-14T14:22:43.642Z,97604.81
2022-09-14T14:27:51.258Z,97612.06
2022-09-14T14:33:01.042Z,97594.75
2022-09-14T14:38:05.978Z,97605.22
2022-09-14T14:43:17.464Z,97606.78
2022-09-14T14:48:25.484Z,97598.22
2022-09-14T14:53:30.748Z,97598.66
2022-09-14T14:58:37.228Z,97576.06
2022-09-14T15:03:45.162Z,97587.56
2022-09-14T15:08:51.059Z,97586.44
2022-09-14T15:13:56.641Z,97579.13
2022-09-14T15:19:04.721Z,97585.38
2022-09-14T15:24:10.783Z,97591.59
2022-09-14T15:29:18.501Z,97580.03
2022-09-14T15:34:26.689Z,97593.56
2022-09-14T15:39:33.435Z,97568.72
2022-09-14T15:44:39.850Z,97574.97
2022-09-14T15:49:47.839Z,97552.66
2022-09-14T15:54:52.706Z,97565.69
2022-09-14T15:59:57.921Z,97574.63
2022-09-14T16:05:05.410Z,97566.13
2022-09-14T16:10:12.050Z,97568.28
2022-09-14T16:15:17.690Z,97559.09
2022-09-14T16:20:25.570Z,97567.50
2022-09-14T16:25:30.581Z,97553.69
2022-09-14T16:30:35.953Z,97538.63
2022-09-14T16:35:43.699Z,97551.38
2022-09-14T16:40:49.107Z,97538.22
2022-09-14T16:46:03.817Z,97544.69
2022-09-14T16:51:12.671Z,97535.91
2022-09-14T16:56:23.824Z,97525.09
2022-09-14T17:01:31.756Z,97512.81
2022-09-14T17:06:43.423Z,97502.78
2022-09-14T17:11:49.458Z,97506.97
2022-09-14T17:17:02.317Z,97524.78
2022-09-14T17:22:10.709Z,97516.66
2022-09-14T17:27:19.130Z,97496.22
2022-09-14T17:32:24.814Z,97501.19
2022-09-14T17:37:33.437Z,97500.09
2022-09-14T17:42:39.160Z,97506.63
2022-09-14T17:47:45.017Z,97497.38
2022-09-14T17:52:53.839Z,97496.53
2022-09-14T17:57:59.575Z,97474.81
2022-09-14T18:03:05.182Z,97480.56
2022-09-14T18:08:13.481Z,97491.34
2022-09-14T18:13:18.815Z,97469.34
2022-09-14T18:18:24.220Z,97464.03
2022-09-14T18:23:32.673Z,97476.28
2022-09-14T18:28:39.737Z,97485.50
2022-09-14T18:33:52.394Z,97463.41
2022-09-14T18:39:01.628Z,97460.72
2022-09-14T18:44:14.743Z,97476.59
2022-09-14T18:49:21.321Z,97466.66
2022-09-14T18:54:32.244Z,97462.72
2022-09-14T18:59:38.111Z,97472.47
2022-09-14T19:04:44.134Z,97483.28
2022-09-14T19:09:52.306Z,97459.66
2022-09-14T19:14:58.050Z,97456.50
2022-09-14T19:20:05.452Z,97477.81
2022-09-14T19:25:17.216Z,97465.22
2022-09-14T19:30:22.857Z,97461.25
2022-09-14T19:35:28.696Z,97437.38
2022-09-14T19:40:37.901Z,97441.09
2022-09-14T19:45:43.346Z,97448.16
2022-09-14T19:50:48.914Z,97462.66
2022-09-14T19:55:57.195Z,97457.31
2022-09-14T20:01:02.905Z,97461.25
2022-09-14T20:06:11.267Z,97458.63
2022-09-14T20:11:21.502Z,97429.34
2022-09-14T20:16:29.429Z,97424.97
2022-09-14T20:21:36.251Z,97408.72
2022-09-14T20:26:45.630Z,97410.16
2022-09-14T20:31:57.116Z,97408.81
2022-09-14T20:37:03.192Z,97427.50
2022-09-14T20:42:11.859Z,97428.78
2022-09-14T20:47:17.386Z,97437.97
2022-09-14T20:52:22.757Z,97458.31
2022-09-14T20:57:35.197Z,97443.72
2022-09-14T21:02:40.752Z,97420.25
2022-09-14T21:07:56.037Z,97421.81
2022-09-14T21:13:04.381Z,97444.50
2022-09-14T21:18:09.836Z,97442.50
2022-09-14T21:23:15.186Z,97440.88
2022-09-14T21:28:23.211Z,97433.00
2022-09-14T21:33:28.884Z,97436.41
2022-09-14T21:38:34.896Z,97448.69
2022-09-14T21:43:44.253Z,97457.81
2022-09-14T21:48:49.819Z,97454.22
2022-09-14T21:53:57.904Z,97465.63
2022-09-14T21:59:10.146Z,97471.78
2022-09-14T22:04:18.231Z,97481.19
2022-09-14T22:09:25.855Z,97470.38
2022-09-14T22:14:33.733Z,97476.88
2022-09-14T22:19:40.193Z,97469.91
2022-09-14T22:24:45.982Z,97464.38
2022-09-14T22:29:54.119Z,97481.25
2022-09-14T22:34:59.385Z,97468.78
2022-09-14T22:40:05.449Z,97483.63
2022-09-14T22:45:14.712Z,97486.34
2022-09-14T22:50:20.537Z,97482.59
2022-09-14T22:55:25.964Z,97478.72
2022-09-14T23:00:34.929Z,97470.16
2022-09-14T23:05:41.759Z,97473.03
2022-09-14T23:10:47.910Z,97488.72
2022-09-14T23:15:56.807Z,97500.00
2022-09-14T23:21:06.562Z,97482.53
2022-09-14T23:26:14.588Z,97479.50
2022-09-14T23:31:24.723Z,97488.09
2022-09-14T23:36:30.957Z,97483.75
2022-09-14T23:41:36.305Z,97489.41
2022-09-14T23:46:44.538Z,97496.81
2022-09-14T23:51:49.917Z,97500.53
2022-09-14T23:56:56.276Z,97524.09
